Flight Track Log - Related Links

Times and Time Zones

All times are in EDT time to prevent confusion due to time zone crossing. See the EGF2816 flight status page for this flight to view local times or setup timezone preferences in your user account.

Time Position Orientation Groundspeed Altitude Reporting Facility
EDT Latitude Longitude Course Direction KTS MPH feet Rate Location/Type
Thu 08:25:16 AM 41.9250 -91.7339 44° Northeast 219 252 21,000  Level Chicago Center
Thu 08:26:18 AM 41.9692 -91.6703 47° Northeast 240 276 21,000 -5,903 Level Chicago Center
Thu 08:27:20 AM 42.0117 -91.6031 50° Northeast 278 320 8,800 -5,032 Descending Chicago Center
Thu 08:28:22 AM 42.0656 -91.5228 48° Northeast 285 328 10,600 1,742 Climbing Chicago Center
Thu 08:29:24 AM 42.1386 -91.4147 48° Northeast 320 368 12,400 1,597 Climbing Chicago Center
Thu 08:30:00 AM 42.2571 -91.1790 44° Northeast  Level FlightAware Approximate
Thu 08:30:26 AM 42.1989 -91.3217 49° Northeast 342 394 13,900  Level Chicago Center
Thu 08:31:28 AM 42.2669 -91.2192 48° Northeast 358 412 15,400 1,463 Climbing Chicago Center
Thu 08:32:29 AM 42.3381 -91.1117 48° Northeast 375 432 16,900 1,317 Climbing Chicago Center
Thu 08:33:31 AM 42.4092 -91.0017 49° Northeast 382 440 18,100 1,452 Climbing Chicago Center
Thu 08:34:33 AM 42.4967 -90.8617 50° Northeast 391 450 19,900 1,355 Climbing Chicago Center
Thu 08:35:35 AM 42.5267 -90.7125 75° East 423 487 20,900 532 Climbing Chicago Center
Thu 08:36:37 AM 42.5225 -90.5481 92° East 435 501 21,000 48 Climbing Chicago Center
Thu 08:37:39 AM 42.5133 -90.3881 94° East 431 496 21,000  Level Chicago Center
Thu 08:38:41 AM 42.5064 -90.2328 93° East 419 482 21,000  Level Chicago Center
Thu 08:39:42 AM 42.4981 -90.0683 94° East 434 499 21,000  Level Chicago Center
Thu 08:40:44 AM 42.4881 -89.8753 94° East 433 498 21,000 -48 Level Chicago Center
Thu 08:41:46 AM 42.4803 -89.7150 94° East 431 496 20,900 -484 Descending Chicago Center
Thu 08:42:48 AM 42.4728 -89.5572 94° East 428 493 20,000 -871 Descending Chicago Center
Thu 08:43:50 AM 42.4644 -89.4039 94° East 418 481 19,100 -878 Descending Chicago Center
Thu 08:44:51 AM 42.4558 -89.2592 95° East 401 461 18,200 -1,317 Descending Chicago Center
Thu 08:45:53 AM 42.4472 -89.1147 95° East 393 452 16,400 -2,516 Descending Chicago Center
Thu 08:46:55 AM 42.4372 -88.9406 94° East 388 447 13,000 -2,516 Descending Chicago Center
Thu 08:47:57 AM 42.4283 -88.7922 95° East 396 456 11,200 -976 Descending Chicago Center
Thu 08:48:58 AM 42.4192 -88.6497 95° East 388 447 11,000 -98 Descending Chicago Center
Thu 08:50:00 AM 42.3806 -88.5156 111° Southeast 383 441 11,000  Level Chicago Center
Thu 08:51:02 AM 42.3317 -88.3722 115° Southeast 380 437 11,000 -387 Level Chicago Center
Thu 08:52:04 AM 42.2767 -88.2819 129° Southeast 302 348 10,200 -1,306 Descending Chicago Center
Thu 08:53:06 AM 42.2267 -88.1997 129° Southeast 290 334 8,300 -1,561 Descending Chicago Center
Thu 08:54:07 AM 42.1733 -88.1197 132° Southeast 264 304 7,000 -634 Descending Chicago Center
Thu 08:55:09 AM 42.1389 -88.0450 122° Southeast 247 284 7,000  Level Chicago Center
Thu 08:56:11 AM 42.1228 -87.9558 104° East 247 284 7,000  Level Chicago Center
Thu 08:57:13 AM 42.1069 -87.8725 104° East 217 250 7,000 -195 Level Chicago Center
Thu 08:58:14 AM 42.0911 -87.7972 106° East 210 242 6,600 -780 Descending Chicago Center
Thu 08:59:16 AM 42.0906 -87.7144 90° East 219 252 5,400 -774 Descending Chicago Center
Thu 09:00:18 AM 42.0603 -87.6639 129° Southeast 176 203 5,000 -532 Descending Chicago Center
Thu 09:01:20 AM 42.0258 -87.6919 211° Southwest 164 189 4,300 -919 Descending Chicago Center
Thu 09:02:22 AM 42.0044 -87.7472 243° Southwest 159 183 3,100 -1,016 Descending Chicago Center
Thu 09:03:24 AM 42.0019 -87.7997 266° West 140 161 2,200 -780 Descending Chicago Center
Thu 09:04:25 AM 42.0019 -87.8461 270° West 127 146 1,500 -634 Descending Chicago Center
Thu 09:05:27 AM 42.0025 -87.9028 271° West 130 150 900 -581 Descending Chicago Center
Thu 09:07:00 AM 41.9793 -87.9074 225° Southwest  Level Estimated

Login

Don't have an account? Register now (free) for customized features, flight alerts, and more!